createdAt,value
2023-01-19T00:01:57.972Z,7.27
2023-01-19T00:04:27.881Z,6.53
2023-01-19T00:06:59.407Z,5.67
2023-01-19T00:09:38.397Z,6.97
2023-01-19T00:12:16.277Z,6.90
2023-01-19T00:14:46.513Z,7.90
2023-01-19T00:17:18.582Z,8.10
2023-01-19T00:19:49.729Z,6.50
2023-01-19T00:22:19.716Z,7.60
2023-01-19T00:24:55.270Z,7.33
2023-01-19T00:27:25.129Z,7.57
2023-01-19T00:29:57.061Z,7.80
2023-01-19T00:32:31.910Z,7.70
2023-01-19T00:35:01.743Z,7.97
2023-01-19T00:37:31.868Z,8.13
2023-01-19T00:40:06.941Z,8.07
2023-01-19T00:42:52.034Z,6.97
2023-01-19T00:45:24.969Z,6.47
2023-01-19T00:47:57.369Z,4.73
2023-01-19T00:50:31.131Z,7.53
2023-01-19T00:53:03.938Z,6.63
2023-01-19T00:55:36.742Z,7.17
2023-01-19T00:58:07.341Z,6.70
2023-01-19T01:00:45.094Z,5.90
2023-01-19T01:03:17.116Z,7.00
2023-01-19T01:05:46.952Z,6.67
2023-01-19T01:08:16.692Z,7.17
2023-01-19T01:10:49.146Z,6.27
2023-01-19T01:13:29.307Z,7.13
2023-01-19T01:16:02.580Z,6.90
2023-01-19T01:18:32.517Z,6.90
2023-01-19T01:21:05.302Z,6.43
2023-01-19T01:23:35.502Z,7.43
2023-01-19T01:26:08.592Z,6.77
2023-01-19T01:28:38.285Z,7.17
2023-01-19T01:31:09.313Z,7.47
2023-01-19T01:33:41.177Z,4.73
2023-01-19T01:36:14.476Z,6.93
2023-01-19T01:38:45.056Z,4.97
2023-01-19T01:41:21.132Z,8.20
2023-01-19T01:43:56.662Z,6.20
2023-01-19T01:46:27.211Z,6.37
2023-01-19T01:49:04.812Z,6.53
2023-01-19T01:51:37.994Z,5.87
2023-01-19T01:54:16.396Z,6.90
2023-01-19T01:56:52.085Z,6.30
2023-01-19T01:59:29.448Z,7.43
2023-01-19T02:02:15.587Z,7.63
2023-01-19T02:04:57.975Z,6.43
2023-01-19T02:07:48.768Z,7.07
2023-01-19T02:10:39.299Z,5.80
2023-01-19T02:13:20.697Z,6.73
2023-01-19T02:15:52.798Z,7.13
2023-01-19T02:18:25.389Z,7.67
2023-01-19T02:21:05.672Z,7.37
2023-01-19T02:23:53.614Z,6.17
2023-01-19T02:26:28.075Z,5.70
2023-01-19T02:29:02.091Z,7.20
2023-01-19T02:31:34.017Z,6.40
2023-01-19T02:34:05.611Z,6.97
2023-01-19T02:36:42.295Z,6.63
2023-01-19T02:39:19.660Z,5.37
2023-01-19T02:41:54.338Z,7.50
2023-01-19T02:44:28.542Z,6.87
2023-01-19T02:46:58.394Z,5.07
2023-01-19T02:49:34.138Z,5.10
2023-01-19T02:52:04.418Z,6.90
2023-01-19T02:54:54.320Z,6.57
2023-01-19T02:57:45.088Z,6.50
2023-01-19T03:00:25.112Z,7.50
2023-01-19T03:03:07.308Z,6.33
2023-01-19T03:05:53.738Z,6.60
2023-01-19T03:08:34.081Z,6.23
2023-01-19T03:11:09.184Z,6.57
2023-01-19T03:13:48.027Z,6.50
2023-01-19T03:16:24.216Z,6.33
2023-01-19T03:18:57.646Z,5.87
2023-01-19T03:21:36.336Z,7.13
2023-01-19T03:24:11.219Z,6.93
2023-01-19T03:26:47.398Z,7.00
2023-01-19T03:29:18.559Z,6.60
2023-01-19T03:31:50.847Z,7.23
2023-01-19T03:34:24.686Z,5.87
2023-01-19T03:36:57.556Z,6.37
2023-01-19T03:39:31.963Z,6.30
2023-01-19T03:42:09.353Z,5.93
2023-01-19T03:44:46.072Z,6.40
2023-01-19T03:47:23.288Z,5.97
2023-01-19T03:49:56.145Z,6.67
2023-01-19T03:52:33.681Z,6.77
2023-01-19T03:55:04.530Z,6.67
2023-01-19T03:57:36.887Z,6.70
2023-01-19T04:00:07.937Z,4.53
2023-01-19T04:02:37.835Z,6.60
2023-01-19T04:05:10.582Z,5.73
2023-01-19T04:07:40.381Z,7.53
2023-01-19T04:10:13.040Z,7.07
2023-01-19T04:12:53.358Z,7.23
2023-01-19T04:15:23.128Z,7.07
2023-01-19T04:17:55.074Z,7.53
2023-01-19T04:20:24.947Z,6.17
2023-01-19T04:22:55.065Z,6.00
2023-01-19T04:25:24.753Z,5.90
2023-01-19T04:27:58.418Z,5.50
2023-01-19T04:30:28.742Z,5.77
2023-01-19T04:32:58.976Z,4.90
2023-01-19T04:35:28.888Z,5.17
2023-01-19T04:37:58.641Z,7.17
2023-01-19T04:40:28.314Z,6.23
2023-01-19T04:43:01.062Z,6.67
2023-01-19T04:45:31.075Z,6.37
2023-01-19T04:48:00.814Z,6.90
2023-01-19T04:50:30.723Z,7.37
2023-01-19T04:53:00.885Z,6.47
2023-01-19T04:55:30.994Z,4.20
2023-01-19T04:58:03.820Z,7.47
2023-01-19T05:00:33.897Z,6.97
2023-01-19T05:03:05.032Z,6.83
2023-01-19T05:05:35.829Z,6.83
2023-01-19T05:08:05.748Z,6.23
2023-01-19T05:10:36.658Z,5.93
2023-01-19T05:13:08.911Z,6.07
2023-01-19T05:15:39.190Z,5.80
2023-01-19T05:18:09.147Z,5.57
2023-01-19T05:20:39.669Z,7.13
2023-01-19T05:23:09.685Z,6.40
2023-01-19T05:25:39.375Z,6.20
2023-01-19T05:28:11.963Z,5.80
2023-01-19T05:30:41.790Z,5.80
2023-01-19T05:33:11.552Z,6.17
2023-01-19T05:35:41.338Z,5.37
2023-01-19T05:38:11.314Z,5.27
2023-01-19T05:40:41.247Z,5.70
2023-01-19T05:43:13.666Z,6.57
2023-01-19T05:45:44.046Z,5.60
2023-01-19T05:48:14.081Z,6.17
2023-01-19T05:50:44.016Z,6.40
2023-01-19T05:53:13.706Z,5.90
2023-01-19T05:55:43.418Z,6.80
2023-01-19T05:58:15.811Z,5.73
2023-01-19T06:00:45.821Z,6.63
2023-01-19T06:03:15.667Z,4.33
2023-01-19T06:05:45.430Z,6.37
2023-01-19T06:08:15.199Z,5.43
2023-01-19T06:10:45.185Z,5.37
2023-01-19T06:13:17.670Z,4.97
2023-01-19T06:15:48.676Z,4.43
2023-01-19T06:18:18.594Z,4.93
2023-01-19T06:20:49.597Z,4.60
2023-01-19T06:23:21.095Z,5.20
2023-01-19T06:25:53.025Z,4.93
2023-01-19T06:28:25.682Z,5.83
2023-01-19T06:30:57.410Z,5.20
2023-01-19T06:33:28.111Z,5.57
2023-01-19T06:35:59.018Z,7.80
2023-01-19T06:38:29.034Z,5.40
2023-01-19T06:41:03.418Z,6.83
2023-01-19T06:43:36.117Z,5.67
2023-01-19T06:46:06.001Z,4.80
2023-01-19T06:48:36.030Z,5.87
2023-01-19T06:51:06.071Z,4.00
2023-01-19T06:53:36.218Z,3.47
2023-01-19T06:56:06.832Z,3.77
2023-01-19T06:58:39.469Z,4.07
2023-01-19T07:01:10.033Z,4.07
2023-01-19T07:03:40.220Z,4.30
2023-01-19T07:06:10.474Z,4.70
2023-01-19T07:08:40.654Z,4.67
2023-01-19T07:11:26.218Z,3.80
2023-01-19T07:14:04.145Z,4.87
2023-01-19T07:16:33.958Z,4.43
2023-01-19T07:19:03.766Z,4.23
2023-01-19T07:21:35.541Z,4.60
2023-01-19T07:24:05.276Z,4.50
2023-01-19T07:26:35.105Z,4.30
2023-01-19T07:29:07.448Z,4.27
2023-01-19T07:31:37.400Z,3.97
2023-01-19T07:34:07.540Z,4.97
2023-01-19T07:36:37.398Z,4.30
2023-01-19T07:39:07.720Z,5.03
2023-01-19T07:41:37.605Z,4.47
2023-01-19T07:44:10.679Z,4.53
2023-01-19T07:46:40.755Z,4.67
2023-01-19T07:49:11.682Z,4.90
2023-01-19T07:51:41.449Z,5.67
2023-01-19T07:54:11.341Z,5.40
2023-01-19T07:56:41.178Z,5.03
2023-01-19T07:59:13.888Z,4.23
2023-01-19T08:01:43.958Z,5.23
2023-01-19T08:04:13.905Z,4.93
2023-01-19T08:06:47.559Z,5.17
2023-01-19T08:09:17.953Z,5.73
2023-01-19T08:11:48.134Z,5.70
2023-01-19T08:14:20.794Z,6.30
2023-01-19T08:16:50.774Z,5.57
2023-01-19T08:19:21.155Z,7.20
2023-01-19T08:21:51.192Z,4.73
2023-01-19T08:24:23.108Z,4.23
2023-01-19T08:26:53.269Z,4.90
2023-01-19T08:29:25.678Z,5.37
2023-01-19T08:31:57.572Z,6.13
2023-01-19T08:34:27.593Z,6.67
2023-01-19T08:36:57.364Z,5.77
2023-01-19T08:39:27.609Z,6.33
2023-01-19T08:42:00.540Z,5.00
2023-01-19T08:44:32.945Z,6.43
2023-01-19T08:47:05.944Z,4.97
2023-01-19T08:49:37.002Z,5.93
2023-01-19T08:52:06.933Z,5.83
2023-01-19T08:54:37.261Z,6.07
2023-01-19T08:57:07.061Z,6.77
2023-01-19T08:59:39.455Z,7.23
2023-01-19T09:02:10.032Z,7.10
2023-01-19T09:04:39.976Z,6.93
2023-01-19T09:07:09.751Z,7.10
2023-01-19T09:09:43.528Z,7.80
2023-01-19T09:12:13.318Z,6.83
2023-01-19T09:14:45.786Z,7.30
2023-01-19T09:17:15.668Z,4.50
2023-01-19T09:19:45.452Z,6.87
2023-01-19T09:22:15.432Z,7.60
2023-01-19T09:24:45.191Z,7.63
2023-01-19T09:27:16.004Z,7.07
2023-01-19T09:29:52.553Z,7.23
2023-01-19T09:32:23.041Z,7.43
2023-01-19T09:34:54.020Z,7.17
2023-01-19T09:37:24.115Z,7.20
2023-01-19T09:39:53.886Z,8.37
2023-01-19T09:42:30.344Z,8.47
2023-01-19T09:45:05.723Z,7.73
2023-01-19T09:47:37.991Z,7.43
2023-01-19T09:50:13.502Z,8.50
2023-01-19T09:52:46.651Z,7.77
2023-01-19T09:55:24.604Z,8.20
2023-01-19T09:57:54.745Z,7.93
2023-01-19T10:00:29.640Z,8.47
2023-01-19T10:03:07.317Z,5.57
2023-01-19T10:05:44.928Z,9.30
2023-01-19T10:08:22.257Z,9.00
2023-01-19T10:10:56.656Z,9.70
2023-01-19T10:13:36.528Z,7.73
2023-01-19T10:16:20.091Z,10.20
2023-01-19T10:18:51.872Z,9.97
2023-01-19T10:21:26.298Z,10.33
2023-01-19T10:24:00.046Z,9.47
2023-01-19T10:26:36.452Z,9.23
2023-01-19T10:29:11.609Z,9.77
2023-01-19T10:31:49.646Z,6.73
2023-01-19T10:34:23.549Z,10.57
2023-01-19T10:37:00.075Z,6.33
2023-01-19T10:39:29.947Z,9.50
2023-01-19T10:42:03.689Z,7.57
2023-01-19T10:44:40.078Z,11.17
2023-01-19T10:47:19.334Z,9.90
2023-01-19T10:49:50.791Z,11.33
2023-01-19T10:52:30.109Z,10.03
2023-01-19T10:55:04.296Z,10.27
2023-01-19T10:57:40.047Z,10.77
2023-01-19T11:00:37.997Z,11.60
2023-01-19T11:03:28.851Z,9.90
2023-01-19T11:06:21.621Z,11.10
2023-01-19T11:08:54.881Z,11.83
2023-01-19T11:11:29.764Z,11.37
2023-01-19T11:14:12.961Z,10.13
2023-01-19T11:16:43.399Z,11.87
2023-01-19T11:19:27.777Z,11.97
2023-01-19T11:22:12.966Z,10.77
2023-01-19T11:24:43.277Z,11.77
2023-01-19T11:27:14.617Z,11.60
2023-01-19T11:29:51.095Z,12.50
2023-01-19T11:32:26.928Z,11.20
2023-01-19T11:35:00.099Z,10.77
2023-01-19T11:37:34.813Z,13.37
2023-01-19T11:40:12.554Z,12.33
2023-01-19T11:42:44.995Z,13.10
2023-01-19T11:45:20.571Z,12.23
2023-01-19T11:47:52.939Z,11.33
2023-01-19T11:50:32.076Z,13.93
2023-01-19T11:53:08.533Z,11.20
2023-01-19T11:55:43.189Z,12.90
2023-01-19T11:58:17.067Z,12.73
2023-01-19T12:00:51.438Z,13.03
2023-01-19T12:03:26.799Z,10.47
2023-01-19T12:06:06.292Z,12.83
2023-01-19T12:08:39.869Z,9.43
2023-01-19T12:11:13.596Z,12.90
2023-01-19T12:13:47.374Z,10.33
2023-01-19T12:16:24.044Z,7.10
2023-01-19T12:19:00.152Z,12.17
2023-01-19T12:21:32.528Z,13.13
2023-01-19T12:24:16.420Z,13.03
2023-01-19T12:26:56.486Z,12.63
2023-01-19T12:29:30.441Z,11.77
2023-01-19T12:32:22.535Z,11.23
2023-01-19T12:34:53.107Z,12.00
2023-01-19T12:37:43.024Z,10.70
2023-01-19T12:40:35.439Z,12.17
2023-01-19T12:43:09.662Z,10.27
2023-01-19T12:45:40.732Z,11.33
2023-01-19T12:48:27.293Z,12.40
2023-01-19T12:50:57.430Z,11.13
2023-01-19T12:53:31.006Z,12.33
2023-01-19T12:56:02.882Z,12.43
2023-01-19T12:58:34.709Z,12.10
2023-01-19T13:01:19.956Z,9.83
2023-01-19T13:04:02.339Z,11.70
2023-01-19T13:07:05.896Z,9.70
2023-01-19T13:09:43.372Z,11.80
2023-01-19T13:12:29.054Z,11.47
2023-01-19T13:15:28.831Z,10.93
2023-01-19T13:17:59.620Z,10.90
2023-01-19T13:20:32.396Z,11.17
2023-01-19T13:23:21.896Z,11.17
2023-01-19T13:25:57.645Z,10.03
2023-01-19T13:28:37.910Z,9.40
2023-01-19T13:31:10.142Z,9.23
2023-01-19T13:33:51.140Z,10.20
2023-01-19T13:36:30.808Z,10.63
2023-01-19T13:39:03.593Z,10.50
2023-01-19T13:41:40.406Z,9.70
2023-01-19T13:44:15.981Z,9.67
2023-01-19T13:46:49.738Z,10.17
2023-01-19T13:49:29.380Z,9.27
2023-01-19T13:52:18.664Z,8.70
2023-01-19T13:54:53.252Z,9.57
2023-01-19T13:57:33.126Z,8.60
2023-01-19T14:00:18.997Z,9.57
2023-01-19T14:03:00.771Z,9.00
2023-01-19T14:05:34.387Z,10.77
2023-01-19T14:08:07.044Z,9.33
2023-01-19T14:10:38.009Z,8.70
2023-01-19T14:13:18.928Z,9.73
2023-01-19T14:15:50.578Z,17.30
2023-01-19T14:18:30.200Z,12.80
2023-01-19T14:21:06.266Z,8.40
2023-01-19T14:23:43.145Z,9.60
2023-01-19T14:26:45.101Z,8.47
2023-01-19T14:29:28.945Z,8.00
2023-01-19T14:32:17.577Z,9.57
2023-01-19T14:34:53.901Z,8.87
2023-01-19T14:37:28.914Z,8.67
2023-01-19T14:40:04.856Z,9.67
2023-01-19T14:42:40.340Z,9.07
2023-01-19T14:45:23.147Z,9.67
2023-01-19T14:47:59.857Z,10.33
2023-01-19T14:50:33.188Z,8.67
2023-01-19T14:53:06.481Z,10.43
2023-01-19T14:55:39.448Z,9.27
2023-01-19T14:58:13.955Z,8.83
2023-01-19T15:00:47.431Z,10.03
2023-01-19T15:03:17.651Z,10.30
2023-01-19T15:05:49.825Z,10.40
2023-01-19T15:08:22.699Z,9.60
2023-01-19T15:10:52.736Z,8.30
2023-01-19T15:13:25.689Z,7.73
2023-01-19T15:15:58.527Z,8.00
2023-01-19T15:18:30.355Z,9.47
2023-01-19T15:21:03.100Z,8.57
2023-01-19T15:23:36.701Z,8.97
2023-01-19T15:26:08.172Z,8.70
2023-01-19T15:28:38.405Z,7.90
2023-01-19T15:31:16.657Z,8.20
2023-01-19T15:33:47.154Z,8.93
2023-01-19T15:36:18.393Z,6.97
2023-01-19T15:38:50.432Z,8.53
2023-01-19T15:41:25.554Z,8.40
2023-01-19T15:43:55.744Z,8.37
2023-01-19T15:46:28.962Z,6.60
2023-01-19T15:49:02.169Z,7.23
2023-01-19T15:51:32.935Z,8.27
2023-01-19T15:54:02.849Z,8.53
2023-01-19T15:56:34.620Z,4.27
2023-01-19T15:59:05.464Z,8.70
2023-01-19T16:01:38.244Z,8.73
2023-01-19T16:04:11.184Z,7.33
2023-01-19T16:06:41.624Z,5.57
2023-01-19T16:09:17.067Z,7.03
2023-01-19T16:11:47.413Z,6.37
2023-01-19T16:14:17.639Z,6.57
2023-01-19T16:16:50.517Z,7.80
2023-01-19T16:19:20.408Z,7.43
2023-01-19T16:21:50.126Z,6.37
2023-01-19T16:24:19.885Z,7.53
2023-01-19T16:26:49.610Z,7.43
2023-01-19T16:29:19.440Z,6.97
2023-01-19T16:31:52.303Z,7.43
2023-01-19T16:34:23.602Z,5.00
2023-01-19T16:36:53.494Z,8.30
2023-01-19T16:39:23.598Z,7.60
2023-01-19T16:41:53.380Z,8.10
2023-01-19T16:44:23.144Z,7.83
2023-01-19T16:46:55.704Z,8.43
2023-01-19T16:49:28.538Z,8.73
2023-01-19T16:51:59.511Z,9.20
2023-01-19T16:54:31.269Z,9.50
2023-01-19T16:57:01.949Z,9.40
2023-01-19T16:59:31.888Z,10.83
2023-01-19T17:02:04.542Z,8.50
2023-01-19T17:04:34.387Z,9.53
2023-01-19T17:07:04.398Z,9.53
2023-01-19T17:09:34.542Z,9.10
2023-01-19T17:12:04.333Z,9.23
2023-01-19T17:14:34.231Z,10.40
2023-01-19T17:17:09.744Z,9.87
2023-01-19T17:19:40.270Z,9.57
2023-01-19T17:22:10.019Z,9.47
2023-01-19T17:24:42.621Z,9.83
2023-01-19T17:27:13.415Z,9.80
2023-01-19T17:29:43.286Z,9.83
2023-01-19T17:32:15.600Z,10.03
2023-01-19T17:34:46.787Z,9.50
2023-01-19T17:37:16.624Z,10.80
2023-01-19T17:39:46.404Z,9.77
2023-01-19T17:42:16.198Z,10.60
2023-01-19T17:44:45.951Z,10.10
2023-01-19T17:47:24.750Z,9.93
2023-01-19T17:49:55.188Z,11.93
2023-01-19T17:52:25.102Z,11.53
2023-01-19T17:54:55.013Z,13.90
2023-01-19T17:57:24.822Z,11.60
2023-01-19T17:59:54.774Z,13.73
2023-01-19T18:02:27.345Z,13.03
2023-01-19T18:04:59.369Z,12.90
2023-01-19T18:07:29.173Z,12.43
2023-01-19T18:10:01.046Z,11.97
2023-01-19T18:12:31.589Z,11.70
2023-01-19T18:15:01.460Z,10.90
2023-01-19T18:17:34.128Z,11.70
2023-01-19T18:20:04.837Z,11.20
2023-01-19T18:22:35.304Z,12.63
2023-01-19T18:25:05.264Z,13.07
2023-01-19T18:27:35.357Z,12.50
2023-01-19T18:30:05.150Z,13.00
2023-01-19T18:32:38.664Z,13.47
2023-01-19T18:35:11.142Z,14.67
2023-01-19T18:37:41.028Z,14.13
2023-01-19T18:40:12.830Z,14.30
2023-01-19T18:42:43.544Z,15.87
2023-01-19T18:45:14.353Z,20.63
2023-01-19T18:47:47.104Z,17.10
2023-01-19T18:50:17.194Z,14.80
2023-01-19T18:52:51.625Z,17.07
2023-01-19T18:55:21.618Z,18.40
2023-01-19T18:57:53.228Z,15.47
2023-01-19T19:00:23.931Z,13.23
2023-01-19T19:02:57.888Z,14.67
2023-01-19T19:05:28.128Z,13.87
2023-01-19T19:07:58.125Z,14.90
2023-01-19T19:10:28.135Z,14.27
2023-01-19T19:12:58.218Z,11.43
2023-01-19T19:15:28.399Z,11.07
2023-01-19T19:18:01.407Z,11.40
2023-01-19T19:20:31.302Z,11.77
2023-01-19T19:23:01.587Z,11.73
2023-01-19T19:25:31.459Z,11.80
2023-01-19T19:28:01.672Z,13.23
2023-01-19T19:30:33.023Z,12.50
2023-01-19T19:33:05.582Z,11.03
2023-01-19T19:35:35.519Z,10.73
2023-01-19T19:38:08.033Z,12.87
2023-01-19T19:40:37.978Z,11.80
2023-01-19T19:43:08.935Z,12.43
2023-01-19T19:45:39.169Z,12.77
2023-01-19T19:48:11.768Z,11.30
2023-01-19T19:50:41.626Z,11.37
2023-01-19T19:53:14.503Z,12.33
2023-01-19T19:55:47.078Z,11.53
2023-01-19T19:58:17.233Z,12.20
2023-01-19T20:00:51.758Z,12.10
2023-01-19T20:03:24.582Z,11.90
2023-01-19T20:05:54.462Z,11.17
2023-01-19T20:08:24.541Z,10.77
2023-01-19T20:10:54.559Z,11.77
2023-01-19T20:13:25.576Z,10.80
2023-01-19T20:15:56.017Z,11.20
2023-01-19T20:18:28.784Z,10.43
2023-01-19T20:20:58.752Z,11.17
2023-01-19T20:23:30.829Z,9.87
2023-01-19T20:26:00.885Z,10.47
2023-01-19T20:28:30.606Z,11.17
2023-01-19T20:31:11.453Z,11.23
2023-01-19T20:33:46.282Z,10.73
2023-01-19T20:36:17.767Z,10.97
2023-01-19T20:38:50.336Z,11.10
2023-01-19T20:41:21.162Z,11.27
2023-01-19T20:43:51.349Z,10.87
2023-01-19T20:46:21.520Z,11.37
2023-01-19T20:48:54.874Z,10.57
2023-01-19T20:51:26.927Z,11.37
2023-01-19T20:53:56.957Z,11.60
2023-01-19T20:56:26.901Z,10.97
2023-01-19T20:58:58.950Z,11.50
2023-01-19T21:01:31.978Z,11.27
2023-01-19T21:04:04.468Z,11.00
2023-01-19T21:06:36.514Z,11.07
2023-01-19T21:09:07.090Z,10.10
2023-01-19T21:11:40.858Z,9.60
2023-01-19T21:14:14.030Z,10.03
2023-01-19T21:16:44.371Z,9.37
2023-01-19T21:19:17.997Z,10.47
2023-01-19T21:21:47.729Z,9.07
2023-01-19T21:24:17.560Z,10.20
2023-01-19T21:26:47.325Z,9.70
2023-01-19T21:29:21.589Z,10.07
2023-01-19T21:31:51.407Z,10.73
2023-01-19T21:34:31.204Z,10.30
2023-01-19T21:37:03.848Z,9.07
2023-01-19T21:39:33.628Z,10.47
2023-01-19T21:42:03.591Z,9.33
2023-01-19T21:44:33.427Z,10.07
2023-01-19T21:47:03.200Z,10.13
2023-01-19T21:49:35.717Z,9.70
2023-01-19T21:52:05.573Z,9.77
2023-01-19T21:54:37.893Z,9.60
2023-01-19T21:57:09.623Z,9.70
2023-01-19T21:59:39.465Z,10.90
2023-01-19T22:02:09.677Z,10.27
2023-01-19T22:04:42.352Z,9.50
2023-01-19T22:07:14.197Z,9.27
2023-01-19T22:09:44.006Z,10.30
2023-01-19T22:12:13.714Z,9.97
2023-01-19T22:14:46.918Z,9.80
2023-01-19T22:17:17.339Z,10.47
2023-01-19T22:19:51.800Z,11.50
2023-01-19T22:22:21.582Z,13.40
2023-01-19T22:24:55.869Z,11.60
2023-01-19T22:27:25.626Z,11.57
2023-01-19T22:29:55.537Z,11.47
2023-01-19T22:32:25.295Z,11.23
2023-01-19T22:34:58.923Z,11.90
2023-01-19T22:37:28.674Z,11.80
2023-01-19T22:39:58.441Z,10.37
2023-01-19T22:42:28.618Z,11.17
2023-01-19T22:44:58.542Z,11.20
2023-01-19T22:47:31.032Z,11.37
2023-01-19T22:50:03.791Z,11.90
2023-01-19T22:52:33.583Z,10.17
2023-01-19T22:55:08.357Z,11.27
2023-01-19T22:57:38.453Z,11.73
2023-01-19T23:00:13.328Z,10.90
2023-01-19T23:02:43.113Z,10.87
2023-01-19T23:05:16.321Z,11.67
2023-01-19T23:07:46.465Z,12.17
2023-01-19T23:10:16.546Z,12.20
2023-01-19T23:12:48.756Z,11.13
2023-01-19T23:15:18.678Z,11.83
2023-01-19T23:17:52.977Z,12.50
2023-01-19T23:20:30.760Z,10.53
2023-01-19T23:23:00.643Z,11.70
2023-01-19T23:25:30.403Z,10.83
2023-01-19T23:28:01.000Z,11.33
2023-01-19T23:30:30.836Z,11.07
2023-01-19T23:33:01.026Z,12.07
2023-01-19T23:35:33.710Z,11.87
2023-01-19T23:38:03.764Z,12.53
2023-01-19T23:40:33.546Z,12.33
2023-01-19T23:43:03.437Z,12.33
2023-01-19T23:45:37.225Z,12.73
2023-01-19T23:48:07.589Z,13.30
2023-01-19T23:50:42.584Z,12.57
2023-01-19T23:53:14.757Z,12.63
2023-01-19T23:55:44.852Z,12.80
2023-01-19T23:58:14.635Z,12.63
